sensor_id;sensor_type;location;lat;lon;timestamp;temperature;humidity
64817;DHT22;53289;45.602;11.904;2023-04-03T00:01:39;20.80;56.30
64817;DHT22;53289;45.602;11.904;2023-04-03T00:04:06;20.80;56.30
64817;DHT22;53289;45.602;11.904;2023-04-03T00:06:32;20.80;56.30
64817;DHT22;53289;45.602;11.904;2023-04-03T00:08:58;20.80;56.20
64817;DHT22;53289;45.602;11.904;2023-04-03T00:11:24;20.80;56.20
64817;DHT22;53289;45.602;11.904;2023-04-03T00:13:50;20.80;56.20
64817;DHT22;53289;45.602;11.904;2023-04-03T00:16:17;20.70;56.10
64817;DHT22;53289;45.602;11.904;2023-04-03T00:18:43;20.70;56.10
64817;DHT22;53289;45.602;11.904;2023-04-03T00:21:12;20.80;56.10
64817;DHT22;53289;45.602;11.904;2023-04-03T00:23:38;20.80;56.10
64817;DHT22;53289;45.602;11.904;2023-04-03T00:26:04;20.80;56.10
64817;DHT22;53289;45.602;11.904;2023-04-03T00:28:30;20.70;56.00
64817;DHT22;53289;45.602;11.904;2023-04-03T00:30:57;20.70;56.00
64817;DHT22;53289;45.602;11.904;2023-04-03T00:33:23;20.80;56.00
64817;DHT22;53289;45.602;11.904;2023-04-03T00:35:50;20.70;55.90
64817;DHT22;53289;45.602;11.904;2023-04-03T00:38:16;20.70;55.90
64817;DHT22;53289;45.602;11.904;2023-04-03T00:40:44;20.70;55.80
64817;DHT22;53289;45.602;11.904;2023-04-03T00:43:14;20.70;55.80
64817;DHT22;53289;45.602;11.904;2023-04-03T00:45:42;20.70;55.70
64817;DHT22;53289;45.602;11.904;2023-04-03T00:48:57;20.70;55.70
64817;DHT22;53289;45.602;11.904;2023-04-03T00:51:06;20.70;55.60
64817;DHT22;53289;45.602;11.904;2023-04-03T00:53:36;20.70;55.50
64817;DHT22;53289;45.602;11.904;2023-04-03T00:56:06;20.70;55.50
64817;DHT22;53289;45.602;11.904;2023-04-03T00:58:43;20.70;55.50
64817;DHT22;53289;45.602;11.904;2023-04-03T01:01:14;20.70;55.40
64817;DHT22;53289;45.602;11.904;2023-04-03T01:03:41;20.70;55.40
64817;DHT22;53289;45.602;11.904;2023-04-03T01:06:07;20.70;55.30
64817;DHT22;53289;45.602;11.904;2023-04-03T01:08:34;20.70;55.30
64817;DHT22;53289;45.602;11.904;2023-04-03T01:11:00;20.70;55.30
64817;DHT22;53289;45.602;11.904;2023-04-03T01:13:32;20.70;55.20
64817;DHT22;53289;45.602;11.904;2023-04-03T01:16:02;20.70;55.20
64817;DHT22;53289;45.602;11.904;2023-04-03T01:18:29;20.70;55.10
64817;DHT22;53289;45.602;11.904;2023-04-03T01:24:08;20.70;55.00
64817;DHT22;53289;45.602;11.904;2023-04-03T01:26:37;20.60;54.90
64817;DHT22;53289;45.602;11.904;2023-04-03T01:29:04;20.60;55.00
64817;DHT22;53289;45.602;11.904;2023-04-03T01:34:17;20.70;54.80
64817;DHT22;53289;45.602;11.904;2023-04-03T01:36:42;20.70;54.90
64817;DHT22;53289;45.602;11.904;2023-04-03T01:39:08;20.60;54.80
64817;DHT22;53289;45.602;11.904;2023-04-03T01:41:34;20.60;54.80
64817;DHT22;53289;45.602;11.904;2023-04-03T01:44:00;20.60;54.80
64817;DHT22;53289;45.602;11.904;2023-04-03T01:46:26;20.60;54.70
64817;DHT22;53289;45.602;11.904;2023-04-03T01:48:52;20.60;54.70
64817;DHT22;53289;45.602;11.904;2023-04-03T01:51:19;20.60;54.60
64817;DHT22;53289;45.602;11.904;2023-04-03T01:53:45;20.60;54.60
64817;DHT22;53289;45.602;11.904;2023-04-03T01:56:11;20.60;54.60
64817;DHT22;53289;45.602;11.904;2023-04-03T01:58:37;20.60;54.50
64817;DHT22;53289;45.602;11.904;2023-04-03T02:01:02;20.60;54.50
64817;DHT22;53289;45.602;11.904;2023-04-03T02:03:29;20.60;54.50
64817;DHT22;53289;45.602;11.904;2023-04-03T02:05:55;20.60;54.40
64817;DHT22;53289;45.602;11.904;2023-04-03T02:08:21;20.60;54.30
64817;DHT22;53289;45.602;11.904;2023-04-03T02:10:48;20.60;54.30
64817;DHT22;53289;45.602;11.904;2023-04-03T02:13:14;20.60;54.30
64817;DHT22;53289;45.602;11.904;2023-04-03T02:15:40;20.50;54.30
64817;DHT22;53289;45.602;11.904;2023-04-03T02:18:06;20.50;54.20
64817;DHT22;53289;45.602;11.904;2023-04-03T02:20:33;20.50;54.20
64817;DHT22;53289;45.602;11.904;2023-04-03T02:22:59;20.50;54.10
64817;DHT22;53289;45.602;11.904;2023-04-03T02:25:25;20.50;54.10
64817;DHT22;53289;45.602;11.904;2023-04-03T02:27:51;20.50;54.00
64817;DHT22;53289;45.602;11.904;2023-04-03T02:30:17;20.50;54.00
64817;DHT22;53289;45.602;11.904;2023-04-03T02:32:43;20.50;54.00
64817;DHT22;53289;45.602;11.904;2023-04-03T02:35:11;20.50;53.90
64817;DHT22;53289;45.602;11.904;2023-04-03T02:37:37;20.50;53.90
64817;DHT22;53289;45.602;11.904;2023-04-03T02:40:04;20.50;53.90
64817;DHT22;53289;45.602;11.904;2023-04-03T02:42:30;20.40;53.90
64817;DHT22;53289;45.602;11.904;2023-04-03T02:44:56;20.50;53.90
64817;DHT22;53289;45.602;11.904;2023-04-03T02:47:22;20.50;53.80
64817;DHT22;53289;45.602;11.904;2023-04-03T02:49:48;20.40;53.80
64817;DHT22;53289;45.602;11.904;2023-04-03T02:52:14;20.40;53.80
64817;DHT22;53289;45.602;11.904;2023-04-03T02:54:40;20.40;53.80
64817;DHT22;53289;45.602;11.904;2023-04-03T02:57:06;20.40;53.80
64817;DHT22;53289;45.602;11.904;2023-04-03T02:59:37;20.40;53.80
64817;DHT22;53289;45.602;11.904;2023-04-03T03:02:06;20.40;53.80
64817;DHT22;53289;45.602;11.904;2023-04-03T03:04:33;20.40;53.80
64817;DHT22;53289;45.602;11.904;2023-04-03T03:06:59;20.40;53.90
64817;DHT22;53289;45.602;11.904;2023-04-03T03:09:25;20.40;53.90
64817;DHT22;53289;45.602;11.904;2023-04-03T03:11:51;20.40;53.90
64817;DHT22;53289;45.602;11.904;2023-04-03T03:14:19;20.40;53.90
64817;DHT22;53289;45.602;11.904;2023-04-03T03:16:44;20.40;53.90
64817;DHT22;53289;45.602;11.904;2023-04-03T03:19:11;20.40;53.90
64817;DHT22;53289;45.602;11.904;2023-04-03T03:21:37;20.40;53.90
64817;DHT22;53289;45.602;11.904;2023-04-03T03:24:02;20.40;53.90
64817;DHT22;53289;45.602;11.904;2023-04-03T03:26:29;20.40;53.80
64817;DHT22;53289;45.602;11.904;2023-04-03T03:28:55;20.40;53.80
64817;DHT22;53289;45.602;11.904;2023-04-03T03:31:21;20.40;53.80
64817;DHT22;53289;45.602;11.904;2023-04-03T03:33:47;20.40;53.70
64817;DHT22;53289;45.602;11.904;2023-04-03T03:36:13;20.40;53.70
64817;DHT22;53289;45.602;11.904;2023-04-03T03:38:39;20.40;53.60
64817;DHT22;53289;45.602;11.904;2023-04-03T03:41:05;20.40;53.60
64817;DHT22;53289;45.602;11.904;2023-04-03T03:43:32;20.40;53.50
64817;DHT22;53289;45.602;11.904;2023-04-03T03:45:58;20.40;53.50
64817;DHT22;53289;45.602;11.904;2023-04-03T03:48:24;20.40;53.50
64817;DHT22;53289;45.602;11.904;2023-04-03T03:50:50;20.40;53.40
64817;DHT22;53289;45.602;11.904;2023-04-03T03:53:17;20.40;53.40
64817;DHT22;53289;45.602;11.904;2023-04-03T03:55:43;20.40;53.40
64817;DHT22;53289;45.602;11.904;2023-04-03T03:58:09;20.40;53.30
64817;DHT22;53289;45.602;11.904;2023-04-03T04:00:35;20.40;53.30
64817;DHT22;53289;45.602;11.904;2023-04-03T04:03:00;20.40;53.30
64817;DHT22;53289;45.602;11.904;2023-04-03T04:05:27;20.40;53.20
64817;DHT22;53289;45.602;11.904;2023-04-03T04:07:53;20.40;53.20
64817;DHT22;53289;45.602;11.904;2023-04-03T04:10:18;20.40;53.20
64817;DHT22;53289;45.602;11.904;2023-04-03T04:12:44;20.40;53.10
64817;DHT22;53289;45.602;11.904;2023-04-03T04:15:10;20.40;53.10
64817;DHT22;53289;45.602;11.904;2023-04-03T04:17:37;20.30;53.00
64817;DHT22;53289;45.602;11.904;2023-04-03T04:20:04;20.30;53.00
64817;DHT22;53289;45.602;11.904;2023-04-03T04:22:30;20.30;52.90
64817;DHT22;53289;45.602;11.904;2023-04-03T04:24:56;20.30;52.90
64817;DHT22;53289;45.602;11.904;2023-04-03T04:27:23;20.30;52.80
64817;DHT22;53289;45.602;11.904;2023-04-03T04:29:49;20.30;52.80
64817;DHT22;53289;45.602;11.904;2023-04-03T04:32:15;20.20;52.80
64817;DHT22;53289;45.602;11.904;2023-04-03T04:34:40;20.20;52.70
64817;DHT22;53289;45.602;11.904;2023-04-03T04:37:06;20.20;52.70
64817;DHT22;53289;45.602;11.904;2023-04-03T04:39:32;20.20;52.70
64817;DHT22;53289;45.602;11.904;2023-04-03T04:41:58;20.20;52.60
64817;DHT22;53289;45.602;11.904;2023-04-03T04:44:24;20.20;52.60
64817;DHT22;53289;45.602;11.904;2023-04-03T04:46:50;20.20;52.60
64817;DHT22;53289;45.602;11.904;2023-04-03T04:49:16;20.20;52.50
64817;DHT22;53289;45.602;11.904;2023-04-03T04:51:42;20.20;52.50
64817;DHT22;53289;45.602;11.904;2023-04-03T04:54:08;20.20;52.50
64817;DHT22;53289;45.602;11.904;2023-04-03T04:56:33;20.20;52.50
64817;DHT22;53289;45.602;11.904;2023-04-03T04:58:59;20.10;52.40
64817;DHT22;53289;45.602;11.904;2023-04-03T05:01:25;20.20;52.40
64817;DHT22;53289;45.602;11.904;2023-04-03T05:03:51;20.10;52.40
64817;DHT22;53289;45.602;11.904;2023-04-03T05:06:17;20.10;52.40
64817;DHT22;53289;45.602;11.904;2023-04-03T05:08:44;20.20;52.60
64817;DHT22;53289;45.602;11.904;2023-04-03T05:11:10;20.20;52.60
64817;DHT22;53289;45.602;11.904;2023-04-03T05:13:37;20.10;52.60
64817;DHT22;53289;45.602;11.904;2023-04-03T05:16:03;20.10;52.50
64817;DHT22;53289;45.602;11.904;2023-04-03T05:18:29;20.10;52.50
64817;DHT22;53289;45.602;11.904;2023-04-03T05:20:55;20.10;52.40
64817;DHT22;53289;45.602;11.904;2023-04-03T05:23:22;20.10;52.40
64817;DHT22;53289;45.602;11.904;2023-04-03T05:25:48;20.10;52.40
64817;DHT22;53289;45.602;11.904;2023-04-03T05:28:14;20.10;52.50
64817;DHT22;53289;45.602;11.904;2023-04-03T05:30:40;20.20;52.60
64817;DHT22;53289;45.602;11.904;2023-04-03T05:33:06;20.10;52.70
64817;DHT22;53289;45.602;11.904;2023-04-03T05:35:32;20.10;52.50
64817;DHT22;53289;45.602;11.904;2023-04-03T05:37:58;20.10;52.50
64817;DHT22;53289;45.602;11.904;2023-04-03T05:40:24;20.10;52.60
64817;DHT22;53289;45.602;11.904;2023-04-03T05:42:51;20.20;52.30
64817;DHT22;53289;45.602;11.904;2023-04-03T05:45:17;20.20;52.30
64817;DHT22;53289;45.602;11.904;2023-04-03T05:47:43;20.10;52.20
64817;DHT22;53289;45.602;11.904;2023-04-03T05:50:10;20.20;52.20
64817;DHT22;53289;45.602;11.904;2023-04-03T05:52:37;20.10;52.30
64817;DHT22;53289;45.602;11.904;2023-04-03T05:55:06;20.20;52.00
64817;DHT22;53289;45.602;11.904;2023-04-03T05:57:33;20.10;52.00
64817;DHT22;53289;45.602;11.904;2023-04-03T05:59:59;20.00;52.10
64817;DHT22;53289;45.602;11.904;2023-04-03T06:02:25;20.00;52.20
64817;DHT22;53289;45.602;11.904;2023-04-03T06:04:51;20.00;52.20
64817;DHT22;53289;45.602;11.904;2023-04-03T06:07:20;20.00;52.20
64817;DHT22;53289;45.602;11.904;2023-04-03T06:09:48;20.00;52.20
64817;DHT22;53289;45.602;11.904;2023-04-03T06:12:14;20.10;52.30
64817;DHT22;53289;45.602;11.904;2023-04-03T06:14:40;20.10;52.20
64817;DHT22;53289;45.602;11.904;2023-04-03T06:17:07;20.10;52.20
64817;DHT22;53289;45.602;11.904;2023-04-03T06:19:34;20.10;52.20
64817;DHT22;53289;45.602;11.904;2023-04-03T06:22:01;20.10;52.20
64817;DHT22;53289;45.602;11.904;2023-04-03T06:24:27;20.10;52.10
64817;DHT22;53289;45.602;11.904;2023-04-03T06:26:53;20.10;52.20
64817;DHT22;53289;45.602;11.904;2023-04-03T06:29:20;20.10;52.20
64817;DHT22;53289;45.602;11.904;2023-04-03T06:31:46;20.10;52.20
64817;DHT22;53289;45.602;11.904;2023-04-03T06:34:12;20.20;52.20
64817;DHT22;53289;45.602;11.904;2023-04-03T06:36:38;20.10;52.30
64817;DHT22;53289;45.602;11.904;2023-04-03T06:39:05;20.10;52.20
64817;DHT22;53289;45.602;11.904;2023-04-03T06:41:31;20.20;52.30
64817;DHT22;53289;45.602;11.904;2023-04-03T06:43:57;20.20;52.40
64817;DHT22;53289;45.602;11.904;2023-04-03T06:46:27;20.20;52.30
64817;DHT22;53289;45.602;11.904;2023-04-03T06:48:53;20.20;52.20
64817;DHT22;53289;45.602;11.904;2023-04-03T06:51:29;20.20;52.20
64817;DHT22;53289;45.602;11.904;2023-04-03T06:53:58;20.30;52.20
64817;DHT22;53289;45.602;11.904;2023-04-03T06:56:24;20.20;52.30
64817;DHT22;53289;45.602;11.904;2023-04-03T06:58:52;20.20;52.30
64817;DHT22;53289;45.602;11.904;2023-04-03T07:01:20;20.30;52.30
64817;DHT22;53289;45.602;11.904;2023-04-03T07:03:47;20.30;52.30
64817;DHT22;53289;45.602;11.904;2023-04-03T07:06:16;20.20;52.20
64817;DHT22;53289;45.602;11.904;2023-04-03T07:08:43;20.30;52.20
64817;DHT22;53289;45.602;11.904;2023-04-03T07:11:11;20.30;52.30
64817;DHT22;53289;45.602;11.904;2023-04-03T07:13:37;20.30;52.30
64817;DHT22;53289;45.602;11.904;2023-04-03T07:16:04;20.30;52.40
64817;DHT22;53289;45.602;11.904;2023-04-03T07:18:32;20.40;52.30
64817;DHT22;53289;45.602;11.904;2023-04-03T07:20:59;20.30;52.10
64817;DHT22;53289;45.602;11.904;2023-04-03T07:23:25;20.30;52.00
64817;DHT22;53289;45.602;11.904;2023-04-03T07:28:27;20.30;51.90
64817;DHT22;53289;45.602;11.904;2023-04-03T07:31:03;20.30;51.80
64817;DHT22;53289;45.602;11.904;2023-04-03T07:33:29;20.30;51.90
64817;DHT22;53289;45.602;11.904;2023-04-03T07:35:55;20.20;51.90
64817;DHT22;53289;45.602;11.904;2023-04-03T07:38:21;20.20;51.80
64817;DHT22;53289;45.602;11.904;2023-04-03T07:40:51;20.20;51.80
64817;DHT22;53289;45.602;11.904;2023-04-03T07:43:19;20.20;51.70
64817;DHT22;53289;45.602;11.904;2023-04-03T07:45:46;20.20;51.80
64817;DHT22;53289;45.602;11.904;2023-04-03T07:48:15;20.10;51.80
64817;DHT22;53289;45.602;11.904;2023-04-03T07:50:43;20.10;51.80
64817;DHT22;53289;45.602;11.904;2023-04-03T07:53:09;20.10;51.70
64817;DHT22;53289;45.602;11.904;2023-04-03T07:55:36;20.10;51.70
64817;DHT22;53289;45.602;11.904;2023-04-03T07:58:17;20.10;51.70
64817;DHT22;53289;45.602;11.904;2023-04-03T08:00:43;20.00;51.60
64817;DHT22;53289;45.602;11.904;2023-04-03T08:03:11;20.00;51.40
64817;DHT22;53289;45.602;11.904;2023-04-03T08:05:38;20.00;51.60
64817;DHT22;53289;45.602;11.904;2023-04-03T08:08:05;20.00;51.70
64817;DHT22;53289;45.602;11.904;2023-04-03T08:10:32;20.00;51.80
64817;DHT22;53289;45.602;11.904;2023-04-03T08:12:58;20.00;51.80
64817;DHT22;53289;45.602;11.904;2023-04-03T08:15:24;20.10;51.80
64817;DHT22;53289;45.602;11.904;2023-04-03T08:17:50;20.10;51.80
64817;DHT22;53289;45.602;11.904;2023-04-03T08:20:16;20.10;51.80
64817;DHT22;53289;45.602;11.904;2023-04-03T08:22:42;20.20;51.80
64817;DHT22;53289;45.602;11.904;2023-04-03T08:25:10;20.10;51.80
64817;DHT22;53289;45.602;11.904;2023-04-03T08:30:15;20.20;51.80
64817;DHT22;53289;45.602;11.904;2023-04-03T08:32:41;20.30;51.80
64817;DHT22;53289;45.602;11.904;2023-04-03T08:35:08;20.30;51.70
64817;DHT22;53289;45.602;11.904;2023-04-03T08:37:36;20.30;51.60
64817;DHT22;53289;45.602;11.904;2023-04-03T08:40:04;20.30;51.60
64817;DHT22;53289;45.602;11.904;2023-04-03T08:47:40;20.40;51.50
64817;DHT22;53289;45.602;11.904;2023-04-03T08:50:19;20.40;51.50
64817;DHT22;53289;45.602;11.904;2023-04-03T08:52:57;20.40;51.40
64817;DHT22;53289;45.602;11.904;2023-04-03T08:55:49;20.40;51.30
64817;DHT22;53289;45.602;11.904;2023-04-03T08:58:28;20.40;51.50
64817;DHT22;53289;45.602;11.904;2023-04-03T09:00:59;20.40;51.30
64817;DHT22;53289;45.602;11.904;2023-04-03T09:03:29;20.40;51.40
64817;DHT22;53289;45.602;11.904;2023-04-03T09:09:15;20.40;51.30
64817;DHT22;53289;45.602;11.904;2023-04-03T09:14:39;20.40;51.50
64817;DHT22;53289;45.602;11.904;2023-04-03T09:22:47;20.40;51.40
64817;DHT22;53289;45.602;11.904;2023-04-03T09:25:20;20.30;51.30
64817;DHT22;53289;45.602;11.904;2023-04-03T09:27:47;20.40;51.20
64817;DHT22;53289;45.602;11.904;2023-04-03T09:30:23;20.30;51.20
64817;DHT22;53289;45.602;11.904;2023-04-03T09:32:51;20.40;51.20
64817;DHT22;53289;45.602;11.904;2023-04-03T09:35:24;20.40;51.20
64817;DHT22;53289;45.602;11.904;2023-04-03T09:37:58;20.40;51.10
64817;DHT22;53289;45.602;11.904;2023-04-03T09:42:51;20.30;50.90
64817;DHT22;53289;45.602;11.904;2023-04-03T09:45:31;20.30;50.90
64817;DHT22;53289;45.602;11.904;2023-04-03T09:48:24;20.30;50.80
64817;DHT22;53289;45.602;11.904;2023-04-03T09:53:41;20.30;50.80
64817;DHT22;53289;45.602;11.904;2023-04-03T09:59:25;20.30;50.70
64817;DHT22;53289;45.602;11.904;2023-04-03T10:01:33;20.20;50.80
64817;DHT22;53289;45.602;11.904;2023-04-03T10:06:34;20.30;50.90
64817;DHT22;53289;45.602;11.904;2023-04-03T10:09:06;20.30;51.00
64817;DHT22;53289;45.602;11.904;2023-04-03T10:11:32;20.20;50.90
64817;DHT22;53289;45.602;11.904;2023-04-03T10:14:01;20.30;50.90
64817;DHT22;53289;45.602;11.904;2023-04-03T10:17:13;20.30;51.00
64817;DHT22;53289;45.602;11.904;2023-04-03T10:22:41;20.30;50.80
64817;DHT22;53289;45.602;11.904;2023-04-03T10:25:21;20.30;50.70
64817;DHT22;53289;45.602;11.904;2023-04-03T10:28:05;20.20;50.60
64817;DHT22;53289;45.602;11.904;2023-04-03T10:31:02;20.30;50.50
64817;DHT22;53289;45.602;11.904;2023-04-03T10:36:29;20.20;50.60
64817;DHT22;53289;45.602;11.904;2023-04-03T10:39:00;20.20;50.70
64817;DHT22;53289;45.602;11.904;2023-04-03T10:50:02;20.20;50.50
64817;DHT22;53289;45.602;11.904;2023-04-03T10:52:47;20.20;50.60
64817;DHT22;53289;45.602;11.904;2023-04-03T10:57:40;20.20;50.70
64817;DHT22;53289;45.602;11.904;2023-04-03T11:00:15;20.20;50.70
64817;DHT22;53289;45.602;11.904;2023-04-03T11:02:51;20.30;50.70
64817;DHT22;53289;45.602;11.904;2023-04-03T11:07:57;20.30;50.60
64817;DHT22;53289;45.602;11.904;2023-04-03T11:10:42;20.30;50.50
64817;DHT22;53289;45.602;11.904;2023-04-03T11:16:02;20.20;50.50
64817;DHT22;53289;45.602;11.904;2023-04-03T11:18:46;20.20;50.60
64817;DHT22;53289;45.602;11.904;2023-04-03T11:21:20;20.20;50.60
64817;DHT22;53289;45.602;11.904;2023-04-03T11:23:48;20.20;50.70
64817;DHT22;53289;45.602;11.904;2023-04-03T11:26:21;20.30;50.80
64817;DHT22;53289;45.602;11.904;2023-04-03T11:28:53;20.30;50.60
64817;DHT22;53289;45.602;11.904;2023-04-03T11:31:28;20.30;50.50
64817;DHT22;53289;45.602;11.904;2023-04-03T11:36:44;20.30;50.40
64817;DHT22;53289;45.602;11.904;2023-04-03T11:39:32;20.30;50.50
64817;DHT22;53289;45.602;11.904;2023-04-03T11:42:40;20.30;50.70
64817;DHT22;53289;45.602;11.904;2023-04-03T11:47:54;20.30;50.60
64817;DHT22;53289;45.602;11.904;2023-04-03T12:13:41;20.00;50.20
64817;DHT22;53289;45.602;11.904;2023-04-03T12:16:21;20.00;50.10
64817;DHT22;53289;45.602;11.904;2023-04-03T12:26:46;20.10;50.00
64817;DHT22;53289;45.602;11.904;2023-04-03T12:29:24;20.10;49.90
64817;DHT22;53289;45.602;11.904;2023-04-03T12:48:55;20.10;50.10
64817;DHT22;53289;45.602;11.904;2023-04-03T12:54:12;20.20;50.00
64817;DHT22;53289;45.602;11.904;2023-04-03T12:56:39;20.10;49.90
64817;DHT22;53289;45.602;11.904;2023-04-03T12:59:15;20.20;49.80
64817;DHT22;53289;45.602;11.904;2023-04-03T13:01:42;20.10;49.70
64817;DHT22;53289;45.602;11.904;2023-04-03T13:04:10;20.10;49.70
64817;DHT22;53289;45.602;11.904;2023-04-03T13:06:43;20.10;49.80
64817;DHT22;53289;45.602;11.904;2023-04-03T13:09:35;20.10;49.20
64817;DHT22;53289;45.602;11.904;2023-04-03T13:12:15;20.00;48.80
64817;DHT22;53289;45.602;11.904;2023-04-03T13:14:51;20.00;49.30
64817;DHT22;53289;45.602;11.904;2023-04-03T13:17:18;20.00;49.50
64817;DHT22;53289;45.602;11.904;2023-04-03T13:19:45;20.10;49.70
64817;DHT22;53289;45.602;11.904;2023-04-03T13:22:32;20.00;49.70
64817;DHT22;53289;45.602;11.904;2023-04-03T13:25:03;20.10;49.70
64817;DHT22;53289;45.602;11.904;2023-04-03T13:27:32;20.10;49.90
64817;DHT22;53289;45.602;11.904;2023-04-03T13:30:00;20.10;49.90
64817;DHT22;53289;45.602;11.904;2023-04-03T13:32:28;20.10;49.90
64817;DHT22;53289;45.602;11.904;2023-04-03T13:34:54;20.10;49.90
64817;DHT22;53289;45.602;11.904;2023-04-03T13:37:33;20.20;50.00
64817;DHT22;53289;45.602;11.904;2023-04-03T13:42:34;20.20;50.10
64817;DHT22;53289;45.602;11.904;2023-04-03T13:45:35;20.20;50.10
64817;DHT22;53289;45.602;11.904;2023-04-03T13:48:10;20.20;49.90
64817;DHT22;53289;45.602;11.904;2023-04-03T13:51:37;20.20;50.10
64817;DHT22;53289;45.602;11.904;2023-04-03T13:59:02;20.30;50.20
64817;DHT22;53289;45.602;11.904;2023-04-03T14:01:48;20.20;50.10
64817;DHT22;53289;45.602;11.904;2023-04-03T14:06:47;20.20;50.00
64817;DHT22;53289;45.602;11.904;2023-04-03T14:09:13;20.20;49.90
64817;DHT22;53289;45.602;11.904;2023-04-03T14:11:40;20.20;49.80
64817;DHT22;53289;45.602;11.904;2023-04-03T14:14:21;20.20;49.80
64817;DHT22;53289;45.602;11.904;2023-04-03T14:16:52;20.20;49.50
64817;DHT22;53289;45.602;11.904;2023-04-03T14:19:31;20.20;49.60
64817;DHT22;53289;45.602;11.904;2023-04-03T14:21:57;20.20;49.50
64817;DHT22;53289;45.602;11.904;2023-04-03T14:24:23;20.20;49.40
64817;DHT22;53289;45.602;11.904;2023-04-03T14:26:51;20.20;49.30
64817;DHT22;53289;45.602;11.904;2023-04-03T14:29:19;20.20;49.20
64817;DHT22;53289;45.602;11.904;2023-04-03T14:31:48;20.10;49.20
64817;DHT22;53289;45.602;11.904;2023-04-03T14:34:14;20.20;49.10
64817;DHT22;53289;45.602;11.904;2023-04-03T14:36:42;20.20;49.00
64817;DHT22;53289;45.602;11.904;2023-04-03T14:39:16;20.10;48.90
64817;DHT22;53289;45.602;11.904;2023-04-03T14:41:43;20.10;48.80
64817;DHT22;53289;45.602;11.904;2023-04-03T14:44:09;20.10;48.70
64817;DHT22;53289;45.602;11.904;2023-04-03T14:46:36;20.10;48.60
64817;DHT22;53289;45.602;11.904;2023-04-03T14:49:04;20.10;48.60
64817;DHT22;53289;45.602;11.904;2023-04-03T14:51:36;20.00;48.50
64817;DHT22;53289;45.602;11.904;2023-04-03T14:54:03;20.00;48.50
64817;DHT22;53289;45.602;11.904;2023-04-03T14:56:31;20.00;48.40
64817;DHT22;53289;45.602;11.904;2023-04-03T14:58:59;20.10;48.40
64817;DHT22;53289;45.602;11.904;2023-04-03T15:01:26;20.00;48.30
64817;DHT22;53289;45.602;11.904;2023-04-03T15:03:51;20.00;48.00
64817;DHT22;53289;45.602;11.904;2023-04-03T15:06:18;19.90;47.50
64817;DHT22;53289;45.602;11.904;2023-04-03T15:08:45;19.90;47.30
64817;DHT22;53289;45.602;11.904;2023-04-03T15:11:12;19.90;47.10
64817;DHT22;53289;45.602;11.904;2023-04-03T15:13:39;19.80;47.00
64817;DHT22;53289;45.602;11.904;2023-04-03T15:16:16;19.70;47.10
64817;DHT22;53289;45.602;11.904;2023-04-03T15:18:42;19.80;47.20
64817;DHT22;53289;45.602;11.904;2023-04-03T15:21:08;19.80;47.10
64817;DHT22;53289;45.602;11.904;2023-04-03T15:23:34;19.80;47.10
64817;DHT22;53289;45.602;11.904;2023-04-03T15:26:01;19.80;47.10
64817;DHT22;53289;45.602;11.904;2023-04-03T15:28:28;19.80;47.30
64817;DHT22;53289;45.602;11.904;2023-04-03T15:30:55;19.90;47.30
64817;DHT22;53289;45.602;11.904;2023-04-03T15:33:22;19.90;47.30
64817;DHT22;53289;45.602;11.904;2023-04-03T15:35:48;19.90;47.10
64817;DHT22;53289;45.602;11.904;2023-04-03T15:38:14;19.90;47.00
64817;DHT22;53289;45.602;11.904;2023-04-03T15:40:40;19.90;47.10
64817;DHT22;53289;45.602;11.904;2023-04-03T15:43:07;19.90;47.10
64817;DHT22;53289;45.602;11.904;2023-04-03T15:45:35;19.90;47.10
64817;DHT22;53289;45.602;11.904;2023-04-03T15:48:02;19.90;47.10
64817;DHT22;53289;45.602;11.904;2023-04-03T15:50:29;19.90;47.20
64817;DHT22;53289;45.602;11.904;2023-04-03T15:52:55;19.90;47.20
64817;DHT22;53289;45.602;11.904;2023-04-03T15:55:24;19.90;47.30
64817;DHT22;53289;45.602;11.904;2023-04-03T15:57:51;20.00;47.40
64817;DHT22;53289;45.602;11.904;2023-04-03T16:00:18;20.00;47.40
64817;DHT22;53289;45.602;11.904;2023-04-03T16:02:46;20.00;47.60
64817;DHT22;53289;45.602;11.904;2023-04-03T16:05:13;20.10;47.60
64817;DHT22;53289;45.602;11.904;2023-04-03T16:07:40;20.10;47.70
64817;DHT22;53289;45.602;11.904;2023-04-03T16:10:08;20.10;47.90
64817;DHT22;53289;45.602;11.904;2023-04-03T16:12:35;20.10;48.00
64817;DHT22;53289;45.602;11.904;2023-04-03T16:15:02;20.10;48.20
64817;DHT22;53289;45.602;11.904;2023-04-03T16:17:29;20.20;48.40
64817;DHT22;53289;45.602;11.904;2023-04-03T16:19:55;20.20;48.80
64817;DHT22;53289;45.602;11.904;2023-04-03T16:22:23;20.20;48.70
64817;DHT22;53289;45.602;11.904;2023-04-03T16:24:50;20.20;49.30
64817;DHT22;53289;45.602;11.904;2023-04-03T16:27:16;20.30;49.70
64817;DHT22;53289;45.602;11.904;2023-04-03T16:29:42;20.30;50.10
64817;DHT22;53289;45.602;11.904;2023-04-03T16:32:08;20.30;50.70
64817;DHT22;53289;45.602;11.904;2023-04-03T16:34:34;20.30;51.00
64817;DHT22;53289;45.602;11.904;2023-04-03T16:37:01;20.40;51.40
64817;DHT22;53289;45.602;11.904;2023-04-03T16:39:26;20.40;51.80
64817;DHT22;53289;45.602;11.904;2023-04-03T16:41:53;20.40;52.20
64817;DHT22;53289;45.602;11.904;2023-04-03T16:44:18;20.50;53.40
64817;DHT22;53289;45.602;11.904;2023-04-03T16:46:44;20.60;54.20
64817;DHT22;53289;45.602;11.904;2023-04-03T16:49:11;20.80;55.60
64817;DHT22;69037;45.634;11.704;2023-04-03T16:51:37;20.90;55.70
64817;DHT22;69037;45.634;11.704;2023-04-03T16:54:03;21.10;56.30
64817;DHT22;69037;45.634;11.704;2023-04-03T16:56:28;21.20;56.00
64817;DHT22;69037;45.634;11.704;2023-04-03T16:58:55;21.20;56.30
64817;DHT22;69037;45.634;11.704;2023-04-03T17:01:22;21.30;56.40
64817;DHT22;69037;45.634;11.704;2023-04-03T17:03:48;21.30;56.10
64817;DHT22;69037;45.634;11.704;2023-04-03T17:06:19;21.30;55.80
64817;DHT22;69037;45.634;11.704;2023-04-03T17:08:47;21.30;55.70
64817;DHT22;69037;45.634;11.704;2023-04-03T17:11:14;21.30;55.60
64817;DHT22;69037;45.634;11.704;2023-04-03T17:13:40;21.20;55.40
64817;DHT22;69037;45.634;11.704;2023-04-03T17:16:09;21.20;55.30
64817;DHT22;69037;45.634;11.704;2023-04-03T17:18:36;21.20;55.20
64817;DHT22;69037;45.634;11.704;2023-04-03T17:21:03;21.20;55.40
64817;DHT22;69037;45.634;11.704;2023-04-03T17:23:30;21.10;55.30
64817;DHT22;69037;45.634;11.704;2023-04-03T17:25:56;21.10;55.00
64817;DHT22;69037;45.634;11.704;2023-04-03T17:28:23;21.10;54.70
64817;DHT22;69037;45.634;11.704;2023-04-03T17:30:56;21.00;54.60
64817;DHT22;69037;45.634;11.704;2023-04-03T17:33:22;21.00;54.50